Time;durP1;ratioP1;P1;durP2;ratioP2;P2;SDS_P1;SDS_P2;PMS_P1;PMS_P2;Temp;Humidity;BMP_temperature;BMP_pressure;BME280_temperature;BME280_humidity;BME280_pressure;Samples;Min_cycle;Max_cycle;Signal;HPM_P1;HPM_P2
2024/04/06 00:00:08;0.00;0.00;0.62;0.00;0.00;0.62;2.67;1.87;;;24.70;29.60;;;;;;2232280;62;20415;-65
2024/04/06 00:02:57;0.00;0.00;0.62;0.00;0.00;0.62;2.70;2.03;;;24.70;29.60;;;;;;2232087;62;20415;-65
2024/04/06 00:05:43;0.00;0.00;0.62;0.00;0.00;0.62;2.97;1.50;;;24.70;29.60;;;;;;2466145;54;20366;-65
2024/04/06 00:08:28;0.00;0.00;0.62;0.00;0.00;0.62;2.33;1.67;;;24.70;29.60;;;;;;2232352;62;20406;-65
2024/04/06 00:11:13;0.00;0.00;0.62;0.00;0.00;0.62;3.03;1.53;;;24.70;29.60;;;;;;2232004;62;20446;-65
2024/04/06 00:13:58;0.00;0.00;0.62;0.00;0.00;0.62;2.50;1.80;;;24.70;29.60;;;;;;2232289;62;20380;-64
2024/04/06 00:16:42;0.00;0.00;0.62;0.00;0.00;0.62;1.90;1.47;;;24.70;29.60;;;;;;2232192;62;20443;-64
2024/04/06 00:19:27;0.00;0.00;0.62;0.00;0.00;0.62;3.57;2.27;;;24.70;29.60;;;;;;2232041;62;20408;-64
2024/04/06 00:22:13;0.00;0.00;0.62;0.00;0.00;0.62;2.30;1.80;;;24.70;29.60;;;;;;2232203;62;20367;-64
2024/04/06 00:24:59;0.00;0.00;0.62;0.00;0.00;0.62;1.87;1.40;;;24.70;29.60;;;;;;2232107;62;20383;-64
2024/04/06 00:27:43;0.00;0.00;0.62;0.00;0.00;0.62;2.63;1.80;;;24.70;29.60;;;;;;2231403;62;20431;-64
2024/04/06 00:30:28;0.00;0.00;0.62;0.00;0.00;0.62;2.30;1.60;;;24.70;29.60;;;;;;2232152;62;20451;-64
2024/04/06 00:33:13;0.00;0.00;0.62;0.00;0.00;0.62;2.67;1.50;;;24.70;29.60;;;;;;2231930;62;20836;-64
2024/04/06 00:35:57;0.00;0.00;0.62;0.00;0.00;0.62;2.73;1.63;;;24.70;29.60;;;;;;2232330;62;20424;-65
2024/04/06 00:38:43;0.00;0.00;0.62;0.00;0.00;0.62;2.53;1.83;;;24.70;29.60;;;;;;2232011;62;20520;-65
2024/04/06 00:41:28;0.00;0.00;0.62;0.00;0.00;0.62;2.13;1.60;;;24.70;29.60;;;;;;2232031;62;20798;-65
2024/04/06 00:44:12;0.00;0.00;0.62;0.00;0.00;0.62;3.33;2.00;;;24.70;29.60;;;;;;2232310;62;20388;-65
2024/04/06 00:47:01;0.00;0.00;0.62;0.00;0.00;0.62;1.97;1.50;;;24.70;29.60;;;;;;2232333;62;20443;-65
2024/04/06 00:49:46;0.00;0.00;0.62;0.00;0.00;0.62;2.00;1.50;;;24.70;29.60;;;;;;2231728;62;20870;-65
2024/04/06 00:52:30;0.00;0.00;0.62;0.00;0.00;0.62;2.47;1.67;;;24.70;29.60;;;;;;2232274;62;20455;-64
2024/04/06 00:55:19;0.00;0.00;0.62;0.00;0.00;0.62;2.90;2.00;;;24.70;29.60;;;;;;2231947;62;20463;-64
2024/04/06 00:58:05;0.00;0.00;0.62;0.00;0.00;0.62;2.50;1.83;;;24.70;29.60;;;;;;2231568;62;20391;-64
2024/04/06 01:00:50;0.00;0.00;0.62;0.00;0.00;0.62;2.13;1.37;;;24.70;29.60;;;;;;2232173;62;20383;-65
2024/04/06 01:03:34;0.00;0.00;0.62;0.00;0.00;0.62;3.63;1.80;;;24.70;29.60;;;;;;2231827;62;20371;-65
2024/04/06 01:06:19;0.00;0.00;0.62;0.00;0.00;0.62;3.30;1.90;;;24.70;29.60;;;;;;2232243;62;20766;-63
2024/04/06 01:09:04;0.00;0.00;0.62;0.00;0.00;0.62;2.20;1.50;;;24.70;29.60;;;;;;2232288;62;20419;-65
2024/04/06 01:11:50;0.00;0.00;0.62;0.00;0.00;0.62;2.33;1.57;;;24.70;29.60;;;;;;2232045;62;20407;-64
2024/04/06 01:14:35;0.00;0.00;0.62;0.00;0.00;0.62;2.50;1.70;;;24.70;29.60;;;;;;2232265;62;20897;-65
2024/04/06 01:17:20;0.00;0.00;0.62;0.00;0.00;0.62;1.90;1.40;;;24.70;29.60;;;;;;2231666;62;20367;-64
2024/04/06 01:20:07;0.00;0.00;0.62;0.00;0.00;0.62;2.57;1.67;;;24.70;29.60;;;;;;2232092;62;20407;-64
2024/04/06 01:22:51;0.00;0.00;0.62;0.00;0.00;0.62;2.30;1.43;;;24.70;29.60;;;;;;2232071;62;21028;-64
2024/04/06 01:25:37;0.00;0.00;0.62;0.00;0.00;0.62;2.40;1.60;;;24.70;29.60;;;;;;2231989;62;20378;-64
2024/04/06 01:28:22;0.00;0.00;0.62;0.00;0.00;0.62;2.33;1.70;;;24.70;29.60;;;;;;2232000;62;20411;-64
2024/04/06 01:31:10;0.00;0.00;0.62;0.00;0.00;0.62;2.23;1.40;;;24.70;29.60;;;;;;2231886;62;20459;-64
2024/04/06 01:33:54;0.00;0.00;0.62;0.00;0.00;0.62;3.37;1.70;;;24.70;29.60;;;;;;2231930;62;20504;-65
2024/04/06 01:36:40;0.00;0.00;0.62;0.00;0.00;0.62;2.80;1.90;;;24.70;29.60;;;;;;2232142;62;20435;-64
2024/04/06 01:39:25;0.00;0.00;0.62;0.00;0.00;0.62;2.77;2.17;;;24.70;29.60;;;;;;2231636;62;20801;-64
2024/04/06 01:42:11;0.00;0.00;0.62;0.00;0.00;0.62;2.77;1.77;;;24.70;29.60;;;;;;2231969;62;20443;-64
2024/04/06 01:44:55;0.00;0.00;0.62;0.00;0.00;0.62;2.70;1.77;;;24.70;29.60;;;;;;2228077;62;20440;-64
2024/04/06 01:47:42;0.00;0.00;0.62;0.00;0.00;0.62;2.33;1.50;;;24.70;29.60;;;;;;2231389;62;20379;-64
2024/04/06 01:50:28;0.00;0.00;0.62;0.00;0.00;0.62;2.63;1.80;;;24.70;29.60;;;;;;2231805;62;20407;-64
2024/04/06 01:53:13;0.00;0.00;0.62;0.00;0.00;0.62;2.53;1.90;;;24.70;29.60;;;;;;2232183;62;20395;-64
2024/04/06 01:55:58;0.00;0.00;0.62;0.00;0.00;0.62;3.30;1.50;;;24.70;29.60;;;;;;2230510;62;20443;-64
2024/04/06 01:58:44;0.00;0.00;0.62;0.00;0.00;0.62;2.30;1.90;;;24.70;29.60;;;;;;2231363;62;20402;-64
2024/04/06 02:01:29;0.00;0.00;0.62;0.00;0.00;0.62;2.30;1.60;;;24.70;29.60;;;;;;2232021;62;20384;-64
2024/04/06 02:04:14;0.00;0.00;0.62;0.00;0.00;0.62;2.37;1.30;;;24.70;29.60;;;;;;2231687;62;20399;-64
2024/04/06 02:06:59;0.00;0.00;0.62;0.00;0.00;0.62;2.77;1.67;;;24.70;29.60;;;;;;2231785;62;20363;-65
2024/04/06 02:09:45;0.00;0.00;0.62;0.00;0.00;0.62;3.80;2.10;;;24.70;29.60;;;;;;2231656;62;20898;-64
2024/04/06 02:12:33;0.00;0.00;0.62;0.00;0.00;0.62;2.37;1.87;;;24.70;29.60;;;;;;2231838;62;20372;-65
2024/04/06 02:15:18;0.00;0.00;0.62;0.00;0.00;0.62;2.50;1.47;;;24.70;29.60;;;;;;2232023;62;20893;-64
2024/04/06 02:18:04;0.00;0.00;0.62;0.00;0.00;0.62;2.33;1.80;;;24.70;29.60;;;;;;2231393;62;20423;-64
2024/04/06 02:20:49;0.00;0.00;0.62;0.00;0.00;0.62;3.00;1.93;;;24.70;29.70;;;;;;2231767;62;20398;-64
2024/04/06 02:23:33;0.00;0.00;0.62;0.00;0.00;0.62;2.90;1.77;;;24.70;29.60;;;;;;2232072;62;20367;-65
2024/04/06 02:26:18;0.00;0.00;0.62;0.00;0.00;0.62;2.47;1.73;;;24.70;29.60;;;;;;2231520;62;20387;-64
2024/04/06 02:29:03;0.00;0.00;0.62;0.00;0.00;0.62;2.30;1.30;;;24.70;29.60;;;;;;2231985;62;20375;-64
2024/04/06 02:31:49;0.00;0.00;0.62;0.00;0.00;0.62;2.33;1.70;;;24.70;29.60;;;;;;2231798;62;20664;-65
2024/04/06 02:34:33;0.00;0.00;0.62;0.00;0.00;0.62;2.23;1.50;;;24.70;29.60;;;;;;2227982;62;20372;-65
2024/04/06 02:37:18;0.00;0.00;0.62;0.00;0.00;0.62;2.73;1.40;;;24.70;29.60;;;;;;2227830;62;20368;-64
2024/04/06 02:40:05;0.00;0.00;0.62;0.00;0.00;0.62;2.27;1.37;;;24.70;29.60;;;;;;2229277;62;20370;-64
2024/04/06 02:42:51;0.00;0.00;0.62;0.00;0.00;0.62;1.90;1.50;;;24.70;29.60;;;;;;2231758;62;20432;-65
2024/04/06 02:45:36;0.00;0.00;0.62;0.00;0.00;0.62;2.20;1.50;;;24.70;29.60;;;;;;2231946;62;20439;-65
2024/04/06 02:48:22;0.00;0.00;0.62;0.00;0.00;0.62;2.07;1.63;;;24.70;29.60;;;;;;2231371;62;20379;-65
2024/04/06 02:51:07;0.00;0.00;0.62;0.00;0.00;0.62;2.40;1.50;;;24.70;29.60;;;;;;2231764;62;20957;-65
2024/04/06 02:53:51;0.00;0.00;0.62;0.00;0.00;0.62;3.17;1.87;;;24.70;29.60;;;;;;2232113;62;20395;-65
2024/04/06 02:56:36;0.00;0.00;0.62;0.00;0.00;0.62;2.67;1.60;;;24.70;29.60;;;;;;2583306;46;20363;-65
2024/04/06 02:59:21;0.00;0.00;0.62;0.00;0.00;0.62;2.20;1.80;;;24.70;29.60;;;;;;2227920;62;20371;-65
2024/04/06 03:02:07;0.00;0.00;0.62;0.00;0.00;0.62;2.23;1.47;;;24.70;29.60;;;;;;2228873;62;20387;-65
2024/04/06 03:04:53;0.00;0.00;0.62;0.00;0.00;0.62;1.73;1.10;;;24.70;29.60;;;;;;2231878;62;20371;-65
2024/04/06 03:07:38;0.00;0.00;0.62;0.00;0.00;0.62;2.23;1.37;;;24.70;29.60;;;;;;2231804;62;20387;-65
2024/04/06 03:10:23;0.00;0.00;0.62;0.00;0.00;0.62;2.17;1.43;;;24.70;29.60;;;;;;2231284;62;20402;-65
2024/04/06 03:13:08;0.00;0.00;0.62;0.00;0.00;0.62;3.00;1.50;;;24.70;29.60;;;;;;2231780;62;20372;-65
2024/04/06 03:15:52;0.00;0.00;0.62;0.00;0.00;0.62;2.20;1.50;;;24.70;29.60;;;;;;2232034;62;20870;-65
2024/04/06 03:18:37;0.00;0.00;0.62;0.00;0.00;0.62;2.27;1.33;;;24.70;29.60;;;;;;2690154;46;20372;-65
2024/04/06 03:21:23;0.00;0.00;0.62;0.00;0.00;0.62;2.47;1.50;;;24.70;29.60;;;;;;2227836;62;20440;-65
2024/04/06 03:24:07;0.00;0.00;0.62;0.00;0.00;0.62;2.53;1.47;;;24.70;29.60;;;;;;2228544;62;20434;-65
2024/04/06 03:26:52;0.00;0.00;0.62;0.00;0.00;0.62;1.83;1.20;;;24.70;29.60;;;;;;2231941;62;20415;-65
2024/04/06 03:29:37;0.00;0.00;0.62;0.00;0.00;0.62;1.77;1.20;;;24.70;29.60;;;;;;2232629;62;20366;-65
2024/04/06 03:32:21;0.00;0.00;0.62;0.00;0.00;0.62;2.27;1.40;;;24.70;29.60;;;;;;2232263;62;20424;-65
2024/04/06 03:35:06;0.00;0.00;0.62;0.00;0.00;0.62;2.57;1.17;;;24.70;29.60;;;;;;2232324;62;20878;-65
2024/04/06 03:37:52;0.00;0.00;0.62;0.00;0.00;0.62;2.00;1.30;;;24.70;29.60;;;;;;2232475;62;20792;-63
2024/04/06 03:40:37;0.00;0.00;0.62;0.00;0.00;0.62;1.97;1.57;;;24.70;29.60;;;;;;2231951;62;21181;-65
2024/04/06 03:43:22;0.00;0.00;0.62;0.00;0.00;0.62;2.37;1.23;;;24.70;29.60;;;;;;2232272;62;20842;-65
2024/04/06 03:46:07;0.00;0.00;0.62;0.00;0.00;0.62;1.93;1.40;;;24.70;29.60;;;;;;2231762;62;20741;-65
2024/04/06 03:48:52;0.00;0.00;0.62;0.00;0.00;0.62;2.23;1.40;;;24.70;29.60;;;;;;2231883;62;20860;-65
2024/04/06 03:51:36;0.00;0.00;0.62;0.00;0.00;0.62;2.83;1.83;;;24.70;29.60;;;;;;2232296;62;20390;-65
2024/04/06 03:54:22;0.00;0.00;0.62;0.00;0.00;0.62;1.50;1.10;;;24.70;29.60;;;;;;2232171;62;20367;-65
2024/04/06 03:57:07;0.00;0.00;0.62;0.00;0.00;0.62;2.00;1.13;;;24.70;29.60;;;;;;2232116;62;20820;-65
2024/04/06 03:59:52;0.00;0.00;0.62;0.00;0.00;0.62;2.33;1.40;;;24.70;29.60;;;;;;2232484;62;20424;-65
2024/04/06 04:02:37;0.00;0.00;0.62;0.00;0.00;0.62;2.13;1.50;;;24.70;29.60;;;;;;2231922;62;20366;-65
2024/04/06 04:05:21;0.00;0.00;0.62;0.00;0.00;0.62;3.33;1.60;;;24.70;29.60;;;;;;2232456;62;20614;-65
2024/04/06 04:08:06;0.00;0.00;0.62;0.00;0.00;0.62;1.93;1.40;;;24.60;29.50;;;;;;2231947;62;20367;-65
2024/04/06 04:10:53;0.00;0.00;0.62;0.00;0.00;0.62;2.30;1.43;;;24.70;29.60;;;;;;2232235;62;20458;-64
2024/04/06 04:13:37;0.00;0.00;0.62;0.00;0.00;0.62;2.10;1.30;;;24.70;29.60;;;;;;2232343;62;20419;-65
2024/04/06 04:16:22;0.00;0.00;0.62;0.00;0.00;0.62;2.40;1.33;;;24.60;29.50;;;;;;2232100;62;20379;-64
2024/04/06 04:19:07;0.00;0.00;0.62;0.00;0.00;0.62;1.90;1.30;;;24.60;29.50;;;;;;2231926;62;20459;-65
2024/04/06 04:21:51;0.00;0.00;0.62;0.00;0.00;0.62;2.03;1.47;;;24.70;29.60;;;;;;2232426;62;20454;-65
2024/04/06 04:24:36;0.00;0.00;0.62;0.00;0.00;0.62;2.50;1.57;;;24.60;29.50;;;;;;2231837;62;20471;-65
2024/04/06 04:27:22;0.00;0.00;0.62;0.00;0.00;0.62;2.50;1.30;;;24.70;29.60;;;;;;2232177;62;20427;-65
2024/04/06 04:30:07;0.00;0.00;0.62;0.00;0.00;0.62;1.80;1.40;;;24.60;29.50;;;;;;2232263;62;20427;-64
2024/04/06 04:32:52;0.00;0.00;0.62;0.00;0.00;0.62;2.60;1.87;;;24.60;29.50;;;;;;2531729;46;20379;-64
2024/04/06 04:35:37;0.00;0.00;0.62;0.00;0.00;0.62;2.90;1.70;;;24.60;29.50;;;;;;2228229;62;20368;-65
2024/04/06 04:38:22;0.00;0.00;0.62;0.00;0.00;0.62;1.90;1.40;;;24.60;29.50;;;;;;2229025;62;20434;-65
2024/04/06 04:41:07;0.00;0.00;0.62;0.00;0.00;0.62;2.40;1.40;;;24.70;29.50;;;;;;2232059;62;20938;-65
2024/04/06 04:43:53;0.00;0.00;0.62;0.00;0.00;0.62;2.77;1.70;;;24.60;29.50;;;;;;2231806;62;20868;-65
2024/04/06 04:46:37;0.00;0.00;0.62;0.00;0.00;0.62;2.10;1.37;;;24.60;29.50;;;;;;2231641;62;20383;-65
2024/04/06 04:49:23;0.00;0.00;0.62;0.00;0.00;0.62;2.57;1.60;;;24.60;29.50;;;;;;2232246;62;20419;-65
2024/04/06 04:52:07;0.00;0.00;0.62;0.00;0.00;0.62;2.30;1.40;;;24.60;29.50;;;;;;2232153;62;20957;-65
2024/04/06 04:54:52;0.00;0.00;0.62;0.00;0.00;0.62;2.37;1.60;;;24.60;29.50;;;;;;2638379;46;20909;-64
2024/04/06 04:57:37;0.00;0.00;0.62;0.00;0.00;0.62;2.60;1.53;;;24.60;29.50;;;;;;2232101;62;20965;-65
2024/04/06 05:00:24;0.00;0.00;0.62;0.00;0.00;0.62;2.20;1.60;;;24.60;29.50;;;;;;2231757;62;20507;-65
2024/04/06 05:03:08;0.00;0.00;0.62;0.00;0.00;0.62;2.30;1.40;;;24.60;29.50;;;;;;2232043;62;20379;-66
2024/04/06 05:05:53;0.00;0.00;0.62;0.00;0.00;0.62;2.47;1.80;;;24.60;29.50;;;;;;2232337;62;20906;-65
2024/04/06 05:08:38;0.00;0.00;0.62;0.00;0.00;0.62;2.10;1.40;;;24.60;29.50;;;;;;2231600;62;20383;-65
2024/04/06 05:11:23;0.00;0.00;0.62;0.00;0.00;0.62;2.70;2.10;;;24.60;29.50;;;;;;2232029;62;20822;-65
2024/04/06 05:14:07;0.00;0.00;0.62;0.00;0.00;0.62;2.63;2.10;;;24.60;29.50;;;;;;2232292;62;20909;-65
2024/04/06 05:16:53;0.00;0.00;0.62;0.00;0.00;0.62;2.30;1.60;;;24.60;29.50;;;;;;2231827;62;20379;-65
2024/04/06 05:19:38;0.00;0.00;0.62;0.00;0.00;0.62;2.90;1.70;;;24.60;29.50;;;;;;2231998;62;20404;-65
2024/04/06 05:22:22;0.00;0.00;0.62;0.00;0.00;0.62;1.97;1.50;;;24.60;29.50;;;;;;2231897;62;20820;-65
2024/04/06 05:25:07;0.00;0.00;0.62;0.00;0.00;0.62;2.57;2.00;;;24.60;29.50;;;;;;2232002;62;20388;-66
2024/04/06 05:27:52;0.00;0.00;0.62;0.00;0.00;0.62;2.87;1.80;;;24.60;29.50;;;;;;2231965;62;20451;-67
2024/04/06 05:30:36;0.00;0.00;0.62;0.00;0.00;0.62;2.20;1.67;;;24.60;29.50;;;;;;2231755;62;20542;-65
2024/04/06 05:33:22;0.00;0.00;0.62;0.00;0.00;0.62;2.90;1.83;;;24.60;29.50;;;;;;2232146;62;20905;-66
2024/04/06 05:36:08;0.00;0.00;0.62;0.00;0.00;0.62;2.60;2.07;;;24.60;29.50;;;;;;2232375;62;20435;-67
2024/04/06 05:38:53;0.00;0.00;0.62;0.00;0.00;0.62;2.90;2.17;;;24.60;29.50;;;;;;2231500;62;20383;-65
2024/04/06 05:41:38;0.00;0.00;0.62;0.00;0.00;0.62;2.50;1.90;;;24.60;29.50;;;;;;2232002;62;20396;-64
2024/04/06 05:44:23;0.00;0.00;0.62;0.00;0.00;0.62;3.23;2.27;;;24.60;29.50;;;;;;2231416;62;20428;-64
2024/04/06 05:47:08;0.00;0.00;0.62;0.00;0.00;0.62;2.80;2.10;;;24.60;29.50;;;;;;2231943;62;20367;-64
2024/04/06 05:49:53;0.00;0.00;0.62;0.00;0.00;0.62;2.90;2.20;;;24.60;29.50;;;;;;2232213;62;20375;-64
2024/04/06 05:52:38;0.00;0.00;0.62;0.00;0.00;0.62;2.40;1.80;;;24.60;29.50;;;;;;2231681;62;20366;-66
2024/04/06 05:55:23;0.00;0.00;0.62;0.00;0.00;0.62;3.30;2.27;;;24.60;29.50;;;;;;2231521;62;20371;-63
2024/04/06 05:58:08;0.00;0.00;0.62;0.00;0.00;0.62;2.87;2.07;;;24.60;30.00;;;;;;2232029;62;20379;-65
2024/04/06 06:00:52;0.00;0.00;0.62;0.00;0.00;0.62;2.40;1.80;;;24.70;29.60;;;;;;2231389;62;20872;-66
2024/04/06 06:03:37;0.00;0.00;0.62;0.00;0.00;0.62;2.80;1.80;;;24.60;29.60;;;;;;2231919;62;20419;-65
2024/04/06 06:06:23;0.00;0.00;0.62;0.00;0.00;0.62;2.50;1.70;;;24.60;29.60;;;;;;2231975;62;20420;-68
2024/04/06 06:09:08;0.00;0.00;0.62;0.00;0.00;0.62;2.70;2.20;;;24.60;29.60;;;;;;2231858;62;20415;-64
2024/04/06 06:11:52;0.00;0.00;0.62;0.00;0.00;0.62;4.50;1.90;;;24.60;29.60;;;;;;2231957;62;20536;-65
2024/04/06 06:14:37;0.00;0.00;0.62;0.00;0.00;0.62;3.00;2.23;;;24.60;29.60;;;;;;2231829;62;20422;-63
2024/04/06 06:17:21;0.00;0.00;0.62;0.00;0.00;0.62;2.83;2.07;;;24.60;29.60;;;;;;2231653;62;20420;-66
2024/04/06 06:20:07;0.00;0.00;0.62;0.00;0.00;0.62;2.90;2.10;;;24.60;29.60;;;;;;2232196;62;20890;-66
2024/04/06 06:22:53;0.00;0.00;0.62;0.00;0.00;0.62;2.77;1.77;;;24.60;29.60;;;;;;2231722;62;20939;-64
2024/04/06 06:25:38;0.00;0.00;0.62;0.00;0.00;0.62;3.20;2.00;;;24.60;29.60;;;;;;2232078;62;20580;-64
2024/04/06 06:28:24;0.00;0.00;0.62;0.00;0.00;0.62;3.00;1.93;;;24.60;29.60;;;;;;2232025;62;20444;-65
2024/04/06 06:31:09;0.00;0.00;0.62;0.00;0.00;0.62;3.20;1.70;;;24.70;29.70;;;;;;2326274;46;20399;-66
2024/04/06 06:33:55;0.00;0.00;0.62;0.00;0.00;0.62;2.70;1.90;;;24.70;29.70;;;;;;2228308;62;20393;-65
2024/04/06 06:36:39;0.00;0.00;0.62;0.00;0.00;0.62;2.00;1.50;;;24.70;29.70;;;;;;2229054;62;20415;-65
2024/04/06 06:39:25;0.00;0.00;0.62;0.00;0.00;0.62;2.00;1.67;;;24.60;29.60;;;;;;2231826;62;20391;-64
2024/04/06 06:42:11;0.00;0.00;0.62;0.00;0.00;0.62;2.30;1.50;;;24.70;29.70;;;;;;2231912;62;20387;-66
2024/04/06 06:44:56;0.00;0.00;0.62;0.00;0.00;0.62;2.73;1.77;;;24.70;29.70;;;;;;2231550;62;20897;-65
2024/04/06 06:47:40;0.00;0.00;0.62;0.00;0.00;0.62;2.40;1.33;;;24.60;29.60;;;;;;2231925;62;20383;-65
2024/04/06 06:50:25;0.00;0.00;0.62;0.00;0.00;0.62;3.30;1.50;;;24.70;29.70;;;;;;2232021;62;20486;-64
2024/04/06 06:53:10;0.00;0.00;0.62;0.00;0.00;0.62;3.30;1.53;;;24.70;29.70;;;;;;2231639;62;20894;-66
2024/04/06 06:55:56;0.00;0.00;0.62;0.00;0.00;0.62;3.10;2.03;;;24.70;29.70;;;;;;2231883;62;20786;-66
2024/04/06 06:58:40;0.00;0.00;0.62;0.00;0.00;0.62;2.90;1.90;;;24.70;29.70;;;;;;2233519;62;20945;-66
2024/04/06 07:01:25;0.00;0.00;0.62;0.00;0.00;0.62;2.50;1.47;;;24.70;29.70;;;;;;2231480;62;20414;-66
2024/04/06 07:04:09;0.00;0.00;0.62;0.00;0.00;0.62;2.40;1.70;;;24.70;29.70;;;;;;2231848;62;20901;-66
2024/04/06 07:06:54;0.00;0.00;0.62;0.00;0.00;0.62;2.50;1.60;;;24.70;29.70;;;;;;2231526;62;20391;-66
2024/04/06 07:09:39;0.00;0.00;0.62;0.00;0.00;0.62;2.70;1.70;;;24.70;29.70;;;;;;2231661;62;20842;-66
2024/04/06 07:12:24;0.00;0.00;0.62;0.00;0.00;0.62;2.50;1.87;;;24.70;29.70;;;;;;2231904;62;20419;-66
2024/04/06 07:15:09;0.00;0.00;0.62;0.00;0.00;0.62;2.50;1.70;;;24.70;29.70;;;;;;2231361;62;20375;-64
2024/04/06 07:17:54;0.00;0.00;0.62;0.00;0.00;0.62;2.23;1.77;;;24.70;29.70;;;;;;2231563;62;20439;-65
2024/04/06 07:20:39;0.00;0.00;0.62;0.00;0.00;0.62;2.97;2.20;;;24.70;29.70;;;;;;2231439;62;20390;-65
2024/04/06 07:23:24;0.00;0.00;0.62;0.00;0.00;0.62;2.93;2.23;;;24.70;29.80;;;;;;2231772;62;20443;-65
2024/04/06 07:26:08;0.00;0.00;0.62;0.00;0.00;0.62;2.87;2.00;;;24.70;29.70;;;;;;2231854;62;20447;-64
2024/04/06 07:28:54;0.00;0.00;0.62;0.00;0.00;0.62;2.30;1.70;;;24.70;29.80;;;;;;2231499;62;20416;-67
2024/04/06 07:31:39;0.00;0.00;0.62;0.00;0.00;0.62;2.60;1.90;;;24.70;29.80;;;;;;2231564;62;20407;-66
2024/04/06 07:34:24;0.00;0.00;0.62;0.00;0.00;0.62;2.00;1.40;;;24.70;29.80;;;;;;2232034;62;20375;-64
2024/04/06 07:37:09;0.00;0.00;0.62;0.00;0.00;0.62;2.90;2.00;;;24.70;29.90;;;;;;2233430;62;20415;-66
2024/04/06 07:39:54;0.00;0.00;0.62;0.00;0.00;0.62;2.30;1.73;;;24.70;29.90;;;;;;2231884;62;20403;-66
2024/04/06 07:42:38;0.00;0.00;0.62;0.00;0.00;0.62;2.50;2.03;;;24.70;29.90;;;;;;2231330;62;20387;-65
2024/04/06 07:45:24;0.00;0.00;0.62;0.00;0.00;0.62;3.50;2.27;;;24.70;29.90;;;;;;2231761;62;20379;-66
2024/04/06 07:48:08;0.00;0.00;0.62;0.00;0.00;0.62;1.93;1.50;;;24.70;29.90;;;;;;2231584;62;20371;-64
2024/04/06 07:50:53;0.00;0.00;0.62;0.00;0.00;0.62;2.73;1.93;;;24.70;29.90;;;;;;2231435;62;20403;-66
2024/04/06 07:53:37;0.00;0.00;0.62;0.00;0.00;0.62;2.37;1.70;;;24.70;29.90;;;;;;2231559;62;20384;-66
2024/04/06 07:56:22;0.00;0.00;0.62;0.00;0.00;0.62;2.47;1.83;;;24.70;29.90;;;;;;2231834;62;20954;-65
2024/04/06 07:59:07;0.00;0.00;0.62;0.00;0.00;0.62;2.73;1.80;;;24.70;29.90;;;;;;2231020;62;20455;-65
2024/04/06 08:01:53;0.00;0.00;0.62;0.00;0.00;0.62;3.20;2.10;;;24.70;29.90;;;;;;2231782;62;20443;-65
2024/04/06 08:04:37;0.00;0.00;0.62;0.00;0.00;0.62;2.73;1.87;;;24.80;29.90;;;;;;2231923;62;20383;-66
2024/04/06 08:07:22;0.00;0.00;0.62;0.00;0.00;0.62;2.50;1.80;;;24.70;29.90;;;;;;2528681;46;20363;-65
2024/04/06 08:10:16;0.00;0.00;0.62;0.00;0.00;0.62;2.50;1.83;;;24.80;29.90;;;;;;2231793;62;20456;-66
2024/04/06 08:13:01;0.00;0.00;0.62;0.00;0.00;0.62;2.60;1.77;;;24.70;29.90;;;;;;2232384;62;20472;-65
2024/04/06 08:15:45;0.00;0.00;0.62;0.00;0.00;0.62;2.40;1.60;;;24.80;30.00;;;;;;2232432;62;20412;-64
2024/04/06 08:18:31;0.00;0.00;0.62;0.00;0.00;0.62;2.97;2.00;;;24.80;29.90;;;;;;2232270;62;20415;-65
2024/04/06 08:21:16;0.00;0.00;0.62;0.00;0.00;0.62;3.47;2.10;;;24.80;29.90;;;;;;2231640;62;20399;-66
2024/04/06 08:24:00;0.00;0.00;0.62;0.00;0.00;0.62;2.80;1.93;;;24.80;29.90;;;;;;2232353;62;20464;-64
2024/04/06 08:26:45;0.00;0.00;0.62;0.00;0.00;0.62;4.23;1.73;;;24.80;29.90;;;;;;2232252;62;20886;-65
2024/04/06 08:29:30;0.00;0.00;0.62;0.00;0.00;0.62;3.03;2.07;;;24.80;29.90;;;;;;2627511;46;20416;-65
2024/04/06 08:32:15;0.00;0.00;0.62;0.00;0.00;0.62;3.10;2.23;;;24.80;29.90;;;;;;2232219;62;20758;-66
2024/04/06 08:35:01;0.00;0.00;0.62;0.00;0.00;0.62;3.43;2.37;;;24.80;30.00;;;;;;2231891;62;20371;-65
2024/04/06 08:37:46;0.00;0.00;0.62;0.00;0.00;0.62;4.30;2.60;;;24.80;29.90;;;;;;2231982;62;20375;-64
2024/04/06 08:40:31;0.00;0.00;0.62;0.00;0.00;0.62;3.50;2.40;;;24.80;30.00;;;;;;2232458;62;20436;-64
2024/04/06 08:43:15;0.00;0.00;0.62;0.00;0.00;0.62;5.20;2.00;;;24.80;30.00;;;;;;2231352;62;20383;-66
2024/04/06 08:46:00;0.00;0.00;0.62;0.00;0.00;0.62;2.60;1.97;;;24.80;29.90;;;;;;2232264;62;20464;-65
2024/04/06 08:48:46;0.00;0.00;0.62;0.00;0.00;0.62;3.80;2.53;;;24.80;29.90;;;;;;2232316;62;20372;-64
2024/04/06 08:51:35;0.00;0.00;0.62;0.00;0.00;0.62;3.60;2.80;;;24.80;29.90;;;;;;2232251;62;20803;-64
2024/04/06 08:54:19;0.00;0.00;0.62;0.00;0.00;0.62;3.93;3.00;;;24.80;29.90;;;;;;2232364;62;20367;-65
2024/04/06 08:57:05;0.00;0.00;0.62;0.00;0.00;0.62;2.80;2.10;;;24.90;30.00;;;;;;2232062;62;20427;-65
2024/04/06 08:59:51;0.00;0.00;0.62;0.00;0.00;0.62;3.20;2.67;;;24.90;30.60;;;;;;2232170;62;20399;-65
2024/04/06 09:02:37;0.00;0.00;0.62;0.00;0.00;0.62;3.00;2.60;;;24.90;30.00;;;;;;2232769;62;20363;-63
2024/04/06 09:05:21;0.00;0.00;0.62;0.00;0.00;0.62;2.93;2.43;;;24.90;30.00;;;;;;2231899;62;20496;-64
2024/04/06 09:08:08;0.00;0.00;0.62;0.00;0.00;0.62;3.83;2.60;;;24.80;29.90;;;;;;2232568;62;20419;-64
2024/04/06 09:11:07;0.00;0.00;0.62;0.00;0.00;0.62;3.37;2.70;;;24.90;30.00;;;;;;2232561;62;20395;-64
2024/04/06 09:13:52;0.00;0.00;0.62;0.00;0.00;0.62;4.00;2.83;;;24.90;30.00;;;;;;2550079;46;20420;-64
2024/04/06 09:16:39;0.00;0.00;0.62;0.00;0.00;0.62;3.03;2.20;;;24.90;30.00;;;;;;2232078;62;20379;-64
2024/04/06 09:19:25;0.00;0.00;0.62;0.00;0.00;0.62;4.00;3.10;;;24.90;30.00;;;;;;2231864;62;20378;-65
2024/04/06 09:22:10;0.00;0.00;0.62;0.00;0.00;0.62;3.17;2.63;;;24.90;30.00;;;;;;2232196;62;20379;-64
2024/04/06 09:24:57;0.00;0.00;0.62;0.00;0.00;0.62;2.90;2.27;;;24.90;30.00;;;;;;2232156;62;20372;-64
2024/04/06 09:27:45;0.00;0.00;0.62;0.00;0.00;0.62;3.07;2.40;;;24.90;30.10;;;;;;2231739;62;20906;-65
2024/04/06 09:30:39;0.00;0.00;0.62;0.00;0.00;0.62;3.20;2.33;;;24.90;30.10;;;;;;2232010;62;20399;-65
2024/04/06 09:33:27;0.00;0.00;0.62;0.00;0.00;0.62;2.47;1.97;;;25.00;30.40;;;;;;2232335;62;20476;-65
2024/04/06 09:36:13;0.00;0.00;0.62;0.00;0.00;0.62;2.60;1.90;;;25.00;30.30;;;;;;2634728;46;20419;-65
2024/04/06 09:38:59;0.00;0.00;0.62;0.00;0.00;0.62;2.67;2.20;;;25.00;30.40;;;;;;2232089;62;20375;-65
2024/04/06 09:41:46;0.00;0.00;0.62;0.00;0.00;0.62;2.53;1.73;;;25.00;30.40;;;;;;2231919;62;20440;-65
2024/04/06 09:44:32;0.00;0.00;0.62;0.00;0.00;0.62;3.13;2.00;;;25.00;30.40;;;;;;2232129;62;20410;-64
2024/04/06 09:47:20;0.00;0.00;0.62;0.00;0.00;0.62;2.90;1.80;;;25.00;30.40;;;;;;2232214;62;20392;-63
2024/04/06 09:50:05;0.00;0.00;0.62;0.00;0.00;0.62;2.47;1.83;;;25.00;30.50;;;;;;2231578;62;20371;-64
2024/04/06 09:52:51;0.00;0.00;0.62;0.00;0.00;0.62;2.70;1.80;;;25.00;30.40;;;;;;2232464;62;20406;-66
2024/04/06 09:55:39;0.00;0.00;0.62;0.00;0.00;0.62;2.60;1.87;;;25.10;30.60;;;;;;2231852;62;20419;-65
2024/04/06 09:58:29;0.00;0.00;0.62;0.00;0.00;0.62;3.03;2.07;;;25.10;30.60;;;;;;2472727;54;20816;-66
2024/04/06 10:01:17;0.00;0.00;0.62;0.00;0.00;0.62;2.10;1.50;;;25.10;30.60;;;;;;2232037;62;20443;-65
2024/04/06 10:04:02;0.00;0.00;0.62;0.00;0.00;0.62;2.67;1.70;;;25.10;30.60;;;;;;2231922;62;20367;-65
2024/04/06 10:06:51;0.00;0.00;0.62;0.00;0.00;0.62;3.13;1.50;;;25.10;30.70;;;;;;2231966;62;20367;-64
2024/04/06 10:09:36;0.00;0.00;0.62;0.00;0.00;0.62;2.33;1.57;;;25.10;30.70;;;;;;2232171;62;20419;-65
2024/04/06 10:12:35;0.00;0.00;0.62;0.00;0.00;0.62;2.33;1.63;;;25.10;30.70;;;;;;2231471;62;20539;-65
2024/04/06 10:15:21;0.00;0.00;0.62;0.00;0.00;0.62;2.33;1.40;;;25.10;30.80;;;;;;2231605;62;20383;-65
2024/04/06 10:18:07;0.00;0.00;0.62;0.00;0.00;0.62;2.60;1.53;;;25.20;30.80;;;;;;2231400;62;20379;-65
2024/04/06 10:20:53;0.00;0.00;0.62;0.00;0.00;0.62;2.27;1.87;;;25.20;30.80;;;;;;2231950;62;20400;-63
2024/04/06 10:23:39;0.00;0.00;0.62;0.00;0.00;0.62;2.60;1.40;;;25.20;30.80;;;;;;2231936;62;20422;-65
2024/04/06 10:26:23;0.00;0.00;0.62;0.00;0.00;0.62;2.10;1.60;;;25.20;30.80;;;;;;2231736;62;20480;-64
2024/04/06 10:29:08;0.00;0.00;0.62;0.00;0.00;0.62;2.80;2.00;;;25.20;30.80;;;;;;2231743;62;20426;-64
2024/04/06 10:31:55;0.00;0.00;0.62;0.00;0.00;0.62;2.30;1.53;;;25.20;30.80;;;;;;2231848;62;20933;-64
2024/04/06 10:34:39;0.00;0.00;0.62;0.00;0.00;0.62;2.17;1.40;;;25.20;30.80;;;;;;2231542;62;20436;-64
2024/04/06 10:37:24;0.00;0.00;0.62;0.00;0.00;0.62;2.90;1.73;;;25.30;30.90;;;;;;2231124;62;20366;-64
2024/04/06 10:40:10;0.00;0.00;0.62;0.00;0.00;0.62;1.73;1.13;;;25.30;30.90;;;;;;2232043;62;20489;-65
2024/04/06 10:42:55;0.00;0.00;0.62;0.00;0.00;0.62;1.83;1.20;;;25.30;30.90;;;;;;2621699;46;20412;-66
2024/04/06 10:45:39;0.00;0.00;0.62;0.00;0.00;0.62;2.40;1.70;;;25.40;31.00;;;;;;2227993;62;20460;-64
2024/04/06 10:48:25;0.00;0.00;0.62;0.00;0.00;0.62;2.53;1.47;;;25.40;31.00;;;;;;2228890;62;20426;-64
2024/04/06 10:51:12;0.00;0.00;0.62;0.00;0.00;0.62;3.10;1.83;;;25.40;31.10;;;;;;2231784;62;20399;-64